Time;durP1;ratioP1;P1;durP2;ratioP2;P2;SDS_P1;SDS_P2;PMS_P1;PMS_P2;Temp;Humidity;BMP_temperature;BMP_pressure;BME280_temperature;BME280_humidity;BME280_pressure;Samples;Min_cycle;Max_cycle;Signal;HPM_P1;HPM_P2
2022/04/09 00:01:21;;;;;;;11.10;6.80;;;4.80;99.90;;;;;;4930501;29;20669;-72
2022/04/09 00:03:48;;;;;;;14.47;7.60;;;4.70;99.90;;;;;;4930137;29;20465;-72
2022/04/09 00:06:15;;;;;;;12.87;7.20;;;4.70;99.90;;;;;;4926954;29;20206;-71
2022/04/09 00:08:41;;;;;;;14.97;7.80;;;4.70;99.90;;;;;;4930953;29;20252;-71
2022/04/09 00:11:08;;;;;;;14.63;7.27;;;4.60;99.90;;;;;;4931772;29;20201;-72
2022/04/09 00:13:36;;;;;;;11.30;6.87;;;4.60;99.90;;;;;;4935384;29;20694;-72
2022/04/09 00:16:03;;;;;;;13.13;6.80;;;4.50;99.90;;;;;;4928958;29;20204;-74
2022/04/09 00:18:29;;;;;;;15.13;8.23;;;4.40;99.90;;;;;;4936293;29;20313;-72
2022/04/09 00:20:56;;;;;;;15.20;8.30;;;4.40;99.90;;;;;;4929618;29;20610;-72
2022/04/09 00:23:23;;;;;;;14.23;8.10;;;4.50;99.90;;;;;;4936167;29;20204;-74
2022/04/09 00:25:50;;;;;;;15.53;8.07;;;4.40;99.90;;;;;;4931186;29;20253;-72
2022/04/09 00:28:16;;;;;;;16.60;8.60;;;4.40;99.90;;;;;;4933804;29;20245;-71
2022/04/09 00:30:43;;;;;;;16.90;8.93;;;4.50;99.90;;;;;;4930962;29;20617;-73
2022/04/09 00:33:10;;;;;;;14.47;8.57;;;4.40;99.90;;;;;;4929908;29;20203;-71
2022/04/09 00:35:36;;;;;;;16.03;8.83;;;4.40;99.90;;;;;;4912325;29;20195;-71
2022/04/09 00:38:03;;;;;;;14.47;8.67;;;4.30;99.90;;;;;;4929683;29;20540;-72
2022/04/09 00:40:30;;;;;;;14.43;8.17;;;4.20;99.90;;;;;;4931289;29;20697;-72
2022/04/09 00:42:56;;;;;;;16.67;8.60;;;4.30;99.90;;;;;;4931357;29;20226;-72
2022/04/09 00:45:23;;;;;;;15.47;9.07;;;4.30;99.90;;;;;;4927944;29;20199;-72
2022/04/09 00:47:50;;;;;;;16.40;9.10;;;4.20;99.90;;;;;;4930898;29;20219;-72
2022/04/09 00:50:17;;;;;;;17.67;8.97;;;4.10;99.90;;;;;;4930912;29;20200;-72
2022/04/09 00:52:49;;;;;;;17.50;9.80;;;4.10;99.90;;;;;;4928714;29;20206;-72
2022/04/09 00:56:12;;;;;;;18.57;10.00;;;4.20;99.90;;;;;;4929700;29;20197;-73
2022/04/09 00:58:13;;;;;;;17.73;9.40;;;4.30;99.90;;;;;;4933071;29;20233;-72
2022/04/09 01:00:41;;;;;;;17.20;9.77;;;4.30;99.90;;;;;;4929008;29;21267;-72
2022/04/09 01:03:19;;;;;;;18.23;9.77;;;4.30;99.90;;;;;;4931262;29;20231;-72
2022/04/09 01:05:48;;;;;;;17.23;9.80;;;4.40;99.90;;;;;;4930576;29;20233;-72
2022/04/09 01:08:15;;;;;;;17.10;10.10;;;4.20;99.90;;;;;;4928483;29;20309;-72
2022/04/09 01:10:45;;;;;;;21.10;10.37;;;4.20;99.90;;;;;;4929761;29;20195;-71
2022/04/09 01:13:13;;;;;;;21.13;10.97;;;4.10;99.90;;;;;;4930689;29;20250;-72
2022/04/09 01:15:40;;;;;;;22.80;10.77;;;4.10;99.90;;;;;;4930246;29;20210;-72
2022/04/09 01:18:07;;;;;;;19.57;9.80;;;4.10;99.90;;;;;;4931604;29;20222;-72
2022/04/09 01:20:34;;;;;;;19.00;11.13;;;4.20;99.90;;;;;;4929542;29;20623;-75
2022/04/09 01:23:01;;;;;;;20.07;11.00;;;4.10;99.90;;;;;;4930355;29;20199;-72
2022/04/09 01:25:28;;;;;;;20.83;11.03;;;4.10;99.90;;;;;;4928994;29;20199;-72
2022/04/09 01:27:55;;;;;;;20.23;11.63;;;4.20;99.90;;;;;;4930752;29;20264;-73
2022/04/09 01:30:22;;;;;;;19.30;10.97;;;4.20;99.90;;;;;;4928249;29;20212;-72
2022/04/09 01:32:48;;;;;;;22.37;10.63;;;4.10;99.90;;;;;;4930515;29;20366;-72
2022/04/09 01:35:15;;;;;;;19.70;10.97;;;4.30;99.90;;;;;;4916671;29;20211;-73
2022/04/09 01:37:42;;;;;;;23.67;11.00;;;4.30;99.90;;;;;;4931239;29;20195;-72
2022/04/09 01:40:09;;;;;;;23.97;11.80;;;4.30;99.90;;;;;;4930886;29;20225;-72
2022/04/09 01:42:36;;;;;;;23.83;12.10;;;4.40;99.90;;;;;;4929272;29;20205;-71
2022/04/09 01:45:06;;;;;;;21.33;11.73;;;4.40;99.90;;;;;;4931778;29;20659;-72
2022/04/09 01:47:34;;;;;;;26.03;12.20;;;4.40;99.90;;;;;;4927867;29;20200;-72
2022/04/09 01:50:00;;;;;;;22.40;11.17;;;4.40;99.90;;;;;;4930928;29;20227;-70
2022/04/09 01:52:27;;;;;;;18.57;10.67;;;4.20;99.90;;;;;;4929878;29;20192;-71
2022/04/09 01:54:54;;;;;;;18.17;9.60;;;4.20;99.90;;;;;;4930119;29;20201;-71
2022/04/09 01:57:20;;;;;;;15.93;9.77;;;4.30;99.90;;;;;;4930799;29;21748;-71
2022/04/09 01:59:47;;;;;;;16.60;9.53;;;4.30;99.90;;;;;;4930095;29;20230;-72
2022/04/09 02:02:14;;;;;;;19.30;9.50;;;4.30;99.90;;;;;;4931013;29;20262;-72
2022/04/09 02:04:40;;;;;;;19.23;10.50;;;4.20;99.90;;;;;;4931832;29;20214;-72
2022/04/09 02:07:07;;;;;;;16.23;9.60;;;4.30;99.90;;;;;;4928422;29;20198;-71
2022/04/09 02:09:34;;;;;;;17.03;9.60;;;4.20;99.90;;;;;;4915601;29;20234;-72
2022/04/09 02:12:00;;;;;;;16.93;9.27;;;4.20;99.90;;;;;;4930872;29;20219;-71
2022/04/09 02:14:27;;;;;;;18.43;9.70;;;4.20;99.90;;;;;;4930874;29;20258;-71
2022/04/09 02:16:54;;;;;;;15.63;9.17;;;4.20;99.90;;;;;;4930520;29;20197;-72
2022/04/09 02:19:20;;;;;;;17.47;8.37;;;4.20;99.90;;;;;;4914237;29;20225;-72
2022/04/09 02:21:47;;;;;;;15.20;8.40;;;4.10;99.90;;;;;;4930511;29;20199;-71
2022/04/09 02:24:14;;;;;;;16.60;8.13;;;4.20;99.90;;;;;;4932032;29;20277;-71
2022/04/09 02:26:41;;;;;;;15.83;8.67;;;4.30;99.90;;;;;;4930252;29;20259;-72
2022/04/09 02:29:07;;;;;;;17.03;8.80;;;4.30;99.90;;;;;;4930953;29;20660;-72
2022/04/09 02:31:34;;;;;;;15.27;8.20;;;4.30;99.90;;;;;;4931151;29;20247;-72
2022/04/09 02:34:01;;;;;;;14.17;7.67;;;4.40;99.90;;;;;;4930085;29;20205;-72
2022/04/09 02:36:29;;;;;;;12.73;7.63;;;4.50;99.90;;;;;;4913599;29;20611;-72
2022/04/09 02:38:55;;;;;;;15.00;7.53;;;4.60;99.90;;;;;;4915583;29;20255;-73
2022/04/09 02:41:22;;;;;;;12.93;7.80;;;4.70;99.90;;;;;;4930070;29;20715;-72
2022/04/09 02:43:49;;;;;;;13.27;7.80;;;4.80;99.90;;;;;;4931153;29;20201;-72
2022/04/09 02:46:16;;;;;;;14.57;8.17;;;4.90;99.90;;;;;;4929560;29;20264;-73
2022/04/09 02:48:43;;;;;;;11.63;7.43;;;4.90;99.90;;;;;;4931454;29;20228;-72
2022/04/09 02:51:12;;;;;;;18.73;7.57;;;5.00;99.90;;;;;;4929539;29;20246;-72
2022/04/09 02:53:39;;;;;;;16.50;7.47;;;5.00;99.90;;;;;;4920816;29;20686;-72
2022/04/09 02:56:06;;;;;;;17.73;7.83;;;5.00;99.90;;;;;;4911514;29;20204;-72
2022/04/09 02:58:32;;;;;;;13.77;7.57;;;4.90;99.90;;;;;;4927416;29;20703;-71
2022/04/09 03:00:59;;;;;;;14.00;7.70;;;4.80;99.90;;;;;;4928589;29;20225;-71
2022/04/09 03:03:26;;;;;;;16.20;7.60;;;4.70;99.90;;;;;;4929566;29;20227;-72
2022/04/09 03:05:53;;;;;;;12.30;7.30;;;4.70;99.90;;;;;;4928567;29;20275;-72
2022/04/09 03:08:19;;;;;;;17.57;8.13;;;4.70;99.90;;;;;;4928989;29;20221;-71
2022/04/09 03:10:46;;;;;;;14.30;8.00;;;4.70;99.90;;;;;;4929576;29;20205;-72
2022/04/09 03:13:12;;;;;;;14.40;7.60;;;4.70;99.90;;;;;;4930038;29;20207;-72
2022/04/09 03:15:41;;;;;;;13.47;8.20;;;4.80;99.90;;;;;;4927940;29;20689;-72
2022/04/09 03:18:10;;;;;;;15.83;7.40;;;4.80;99.90;;;;;;4931414;29;20752;-72
2022/04/09 03:20:38;;;;;;;13.30;6.80;;;4.80;99.90;;;;;;4930569;29;20261;-72
2022/04/09 03:23:04;;;;;;;12.47;6.83;;;4.70;99.90;;;;;;4930416;29;20547;-73
2022/04/09 03:25:31;;;;;;;12.53;7.17;;;4.60;99.90;;;;;;4935525;29;20267;-72
2022/04/09 03:27:58;;;;;;;16.57;7.50;;;4.70;99.90;;;;;;4932895;29;20201;-72
2022/04/09 03:30:24;;;;;;;13.77;6.53;;;4.70;99.90;;;;;;4933903;29;20221;-71
2022/04/09 03:32:51;;;;;;;14.40;6.63;;;4.60;99.90;;;;;;4933810;29;20199;-72
2022/04/09 03:35:18;;;;;;;15.27;6.53;;;4.60;99.90;;;;;;4916849;29;20192;-72
2022/04/09 03:37:45;;;;;;;15.93;6.50;;;4.60;99.90;;;;;;4931237;29;20458;-72
2022/04/09 03:40:13;;;;;;;10.90;5.77;;;4.80;99.90;;;;;;4934420;29;20244;-72
2022/04/09 03:42:40;;;;;;;19.53;5.70;;;4.80;99.90;;;;;;4932220;29;20203;-72
2022/04/09 03:45:08;;;;;;;11.10;5.70;;;4.80;99.90;;;;;;4932633;29;20210;-72
2022/04/09 03:47:35;;;;;;;13.57;5.27;;;4.70;99.90;;;;;;4933748;29;20198;-73
2022/04/09 03:50:02;;;;;;;11.87;5.27;;;4.70;99.90;;;;;;4933981;29;20231;-72
2022/04/09 03:52:29;;;;;;;10.13;4.83;;;4.80;99.90;;;;;;4933170;29;20202;-72
2022/04/09 03:54:55;;;;;;;9.00;4.83;;;4.80;99.90;;;;;;4931851;29;20207;-73
2022/04/09 03:57:22;;;;;;;12.37;4.60;;;4.80;99.90;;;;;;4933142;29;20592;-72
2022/04/09 03:59:51;;;;;;;10.13;4.17;;;4.80;99.90;;;;;;4934166;29;20251;-72
2022/04/09 04:02:18;;;;;;;11.20;4.50;;;4.80;99.90;;;;;;4933116;29;20547;-73
2022/04/09 04:04:45;;;;;;;11.80;4.37;;;4.80;99.90;;;;;;4916085;29;20276;-72
2022/04/09 04:07:13;;;;;;;11.57;4.07;;;4.90;99.90;;;;;;4931949;29;20237;-70
2022/04/09 04:09:39;;;;;;;7.70;4.17;;;4.90;99.90;;;;;;4931550;29;20229;-71
2022/04/09 04:12:06;;;;;;;7.27;3.87;;;4.80;99.90;;;;;;4930179;29;20198;-71
2022/04/09 04:14:33;;;;;;;10.07;4.13;;;4.80;99.90;;;;;;4930939;29;20195;-71
2022/04/09 04:17:00;;;;;;;8.33;3.40;;;4.90;99.90;;;;;;4915182;29;20235;-69
2022/04/09 04:19:26;;;;;;;7.17;3.40;;;4.80;99.90;;;;;;4933957;29;20237;-72
2022/04/09 04:21:53;;;;;;;7.30;3.53;;;4.80;99.90;;;;;;4933634;29;22033;-71
2022/04/09 04:24:20;;;;;;;10.77;3.80;;;4.70;99.90;;;;;;4931592;29;20214;-72
2022/04/09 04:26:46;;;;;;;7.93;3.20;;;4.70;99.90;;;;;;4933197;29;20619;-72
2022/04/09 04:29:13;;;;;;;8.17;2.90;;;4.60;99.90;;;;;;4930330;29;20224;-72
2022/04/09 04:31:40;;;;;;;7.83;3.23;;;4.60;99.90;;;;;;4931804;29;20199;-72
2022/04/09 04:34:06;;;;;;;8.87;2.83;;;4.60;99.90;;;;;;4929858;29;20202;-72
2022/04/09 04:36:42;;;;;;;5.30;2.90;;;4.50;99.90;;;;;;4933109;29;20570;-72
2022/04/09 04:39:14;;;;;;;7.03;3.13;;;4.50;99.90;;;;;;4914561;29;20649;-72
2022/04/09 04:41:41;;;;;;;7.03;2.53;;;4.40;99.90;;;;;;4914033;29;20207;-72
2022/04/09 04:44:09;;;;;;;7.83;3.00;;;4.40;99.90;;;;;;4914193;29;21981;-72
2022/04/09 04:46:38;;;;;;;7.87;3.20;;;4.40;99.90;;;;;;4933459;29;20203;-71
2022/04/09 04:49:05;;;;;;;7.33;2.67;;;4.30;99.90;;;;;;4930717;29;20227;-72
2022/04/09 04:51:31;;;;;;;7.53;2.70;;;4.30;99.90;;;;;;4929430;29;20195;-72
2022/04/09 04:53:58;;;;;;;11.73;3.00;;;4.40;99.90;;;;;;4930387;29;20235;-72
2022/04/09 04:56:25;;;;;;;7.90;2.83;;;4.40;99.90;;;;;;4932866;29;20192;-70
2022/04/09 04:58:51;;;;;;;8.23;2.53;;;4.40;99.90;;;;;;4931094;29;20220;-72
2022/04/09 05:01:18;;;;;;;8.20;2.80;;;4.30;99.90;;;;;;4933530;29;20213;-71
2022/04/09 05:03:45;;;;;;;5.97;3.00;;;4.40;99.90;;;;;;4931352;29;20208;-72
2022/04/09 05:06:11;;;;;;;7.80;2.70;;;4.40;99.90;;;;;;4930722;29;20206;-72
2022/04/09 05:08:40;;;;;;;13.40;3.17;;;4.40;99.90;;;;;;4930660;29;20278;-72
2022/04/09 05:11:06;;;;;;;5.67;2.53;;;4.40;99.90;;;;;;4932188;29;20212;-71
2022/04/09 05:13:33;;;;;;;8.33;2.53;;;4.40;99.90;;;;;;4931546;29;20196;-73
2022/04/09 05:15:59;;;;;;;5.83;2.93;;;4.40;99.90;;;;;;4932607;29;20201;-72
2022/04/09 05:18:27;;;;;;;8.30;3.00;;;4.30;99.90;;;;;;4930858;29;20227;-74
2022/04/09 05:20:53;;;;;;;4.40;2.40;;;4.30;99.90;;;;;;4932976;29;20201;-72
2022/04/09 05:23:20;;;;;;;9.07;2.97;;;4.50;99.90;;;;;;4927538;29;20202;-71
2022/04/09 05:25:47;;;;;;;10.50;2.70;;;4.70;99.90;;;;;;4929754;29;20207;-73
2022/04/09 05:28:14;;;;;;;11.67;2.83;;;4.80;99.90;;;;;;4929324;29;20341;-71
2022/04/09 05:30:46;;;;;;;8.60;3.17;;;4.90;99.90;;;;;;4927371;29;20247;-73
2022/04/09 05:33:13;;;;;;;8.73;2.70;;;5.10;99.90;;;;;;4930163;29;20224;-73
2022/04/09 05:35:40;;;;;;;8.20;2.73;;;5.10;99.90;;;;;;4929065;29;20252;-72
2022/04/09 05:38:09;;;;;;;11.13;2.77;;;5.20;99.90;;;;;;4930791;29;20195;-73
2022/04/09 05:40:36;;;;;;;9.27;2.60;;;5.30;99.90;;;;;;4932235;29;20209;-74
2022/04/09 05:43:03;;;;;;;8.30;2.97;;;5.40;99.90;;;;;;4931278;29;20203;-73
2022/04/09 05:45:30;;;;;;;12.30;2.73;;;5.50;99.90;;;;;;4935923;28;20724;-72
2022/04/09 05:47:57;;;;;;;6.53;2.60;;;5.50;99.90;;;;;;4927779;29;20223;-73
2022/04/09 05:50:23;;;;;;;6.73;2.80;;;5.50;99.90;;;;;;4929820;29;20865;-72
2022/04/09 05:52:50;;;;;;;9.10;2.70;;;5.60;99.90;;;;;;4931748;29;20261;-74
2022/04/09 05:55:17;;;;;;;7.93;2.30;;;5.70;99.90;;;;;;4913149;29;20623;-72
2022/04/09 05:57:44;;;;;;;8.87;2.93;;;5.70;99.90;;;;;;4932339;29;20284;-73
2022/04/09 06:00:13;;;;;;;9.07;2.23;;;6.00;99.90;;;;;;4920343;29;20283;-72
2022/04/09 06:02:40;;;;;;;5.00;2.03;;;6.20;99.90;;;;;;4907558;29;20204;-72
2022/04/09 06:05:07;;;;;;;6.37;2.07;;;6.10;99.90;;;;;;4892241;29;20217;-72
2022/04/09 06:07:34;;;;;;;4.10;2.30;;;6.20;99.90;;;;;;4891961;29;20204;-74
2022/04/09 06:10:04;;;;;;;6.17;2.40;;;6.20;99.90;;;;;;4892411;29;20228;-72
2022/04/09 06:12:30;;;;;;;8.30;2.27;;;6.40;99.90;;;;;;4891555;29;20206;-71
2022/04/09 06:14:57;;;;;;;9.50;2.20;;;6.50;99.90;;;;;;4888770;29;20203;-71
2022/04/09 06:17:27;;;;;;;9.67;2.60;;;6.60;99.90;;;;;;4890586;29;20287;-71
2022/04/09 06:19:54;;;;;;;6.50;2.60;;;6.70;99.90;;;;;;4889871;29;20578;-73
2022/04/09 06:22:20;;;;;;;5.67;2.13;;;6.70;99.90;;;;;;4891323;29;20196;-71
2022/04/09 06:24:47;;;;;;;4.93;2.20;;;6.90;99.90;;;;;;4891639;29;20213;-72
2022/04/09 06:27:14;;;;;;;3.83;1.90;;;7.10;99.90;;;;;;4893222;29;20210;-72
2022/04/09 06:29:40;;;;;;;8.90;2.10;;;7.00;99.90;;;;;;4893557;29;20228;-74
2022/04/09 06:32:07;;;;;;;8.00;2.50;;;7.00;99.90;;;;;;4896288;29;20202;-71
2022/04/09 06:34:34;;;;;;;11.03;2.40;;;6.90;99.90;;;;;;4914232;29;20232;-71
2022/04/09 06:37:00;;;;;;;6.57;2.73;;;6.90;99.90;;;;;;4914407;29;20195;-74
2022/04/09 06:39:34;;;;;;;6.23;2.40;;;7.00;99.90;;;;;;4895681;29;20219;-72
2022/04/09 06:42:01;;;;;;;6.33;2.23;;;7.10;99.90;;;;;;4892652;29;20810;-71
2022/04/09 06:44:27;;;;;;;7.87;2.60;;;7.10;99.90;;;;;;4896353;29;20628;-73
2022/04/09 06:46:54;;;;;;;9.40;2.80;;;7.00;99.90;;;;;;4897170;29;20206;-70
2022/04/09 06:49:20;;;;;;;8.60;2.70;;;7.20;99.90;;;;;;4897546;29;20272;-71
2022/04/09 06:51:48;;;;;;;6.90;2.80;;;7.40;99.90;;;;;;4896905;29;20204;-72
2022/04/09 06:54:15;;;;;;;6.77;2.63;;;7.30;99.90;;;;;;4895794;29;20205;-72
2022/04/09 06:56:44;;;;;;;8.50;2.30;;;7.40;99.90;;;;;;4890209;29;20328;-71
2022/04/09 06:59:10;;;;;;;9.37;2.40;;;7.30;99.90;;;;;;4895041;29;20225;-72
2022/04/09 07:01:37;;;;;;;5.70;2.23;;;7.40;99.90;;;;;;4902823;29;20301;-71
2022/04/09 07:04:04;;;;;;;9.07;2.10;;;7.60;99.90;;;;;;4893528;29;20750;-72
2022/04/09 07:06:31;;;;;;;10.20;2.20;;;7.50;99.90;;;;;;4900822;29;20204;-70
2022/04/09 07:08:58;;;;;;;9.03;2.80;;;7.70;99.90;;;;;;4897906;29;20223;-73
2022/04/09 07:11:25;;;;;;;6.37;2.10;;;7.90;99.90;;;;;;4901408;29;20222;-72
2022/04/09 07:13:51;;;;;;;6.60;2.43;;;8.10;99.90;;;;;;4905926;29;20200;-71
2022/04/09 07:16:18;;;;;;;6.97;2.40;;;8.20;99.90;;;;;;4892802;29;20251;-71
2022/04/09 07:18:45;;;;;;;5.30;2.07;;;8.10;99.90;;;;;;4898639;29;20216;-73
2022/04/09 07:21:12;;;;;;;10.80;2.50;;;8.20;99.90;;;;;;4895759;29;20224;-70
2022/04/09 07:23:38;;;;;;;8.43;2.37;;;8.20;99.90;;;;;;4897855;29;20220;-73
2022/04/09 07:26:05;;;;;;;9.40;2.43;;;8.20;99.90;;;;;;4898336;29;20208;-72
2022/04/09 07:28:32;;;;;;;7.93;2.60;;;8.70;99.90;;;;;;4894054;29;20233;-70
2022/04/09 07:30:59;;;;;;;7.70;2.43;;;8.90;99.90;;;;;;4903015;29;20233;-72
2022/04/09 07:33:25;;;;;;;9.37;2.50;;;8.90;99.90;;;;;;4893848;29;20207;-72
2022/04/09 07:35:55;;;;;;;7.43;2.50;;;8.80;99.90;;;;;;4896043;29;20198;-72
2022/04/09 07:38:22;;;;;;;5.43;2.17;;;8.60;99.90;;;;;;4897028;29;20248;-72
2022/04/09 07:40:49;;;;;;;4.80;2.10;;;8.80;99.90;;;;;;4898022;29;20206;-72
2022/04/09 07:43:15;;;;;;;9.77;3.03;;;8.90;99.90;;;;;;4897531;29;20234;-71
2022/04/09 07:45:42;;;;;;;3.63;1.90;;;8.80;99.90;;;;;;4892841;29;20743;-71
2022/04/09 07:48:11;;;;;;;6.83;1.90;;;8.80;99.90;;;;;;4896494;29;20271;-71
2022/04/09 07:50:37;;;;;;;5.63;2.00;;;8.80;99.90;;;;;;4896740;29;20226;-72
2022/04/09 07:53:04;;;;;;;10.43;2.77;;;8.90;99.90;;;;;;4896290;29;20861;-71
2022/04/09 07:55:31;;;;;;;8.30;2.40;;;8.80;99.90;;;;;;4900844;29;20289;-72
2022/04/09 07:57:58;;;;;;;11.17;2.20;;;8.90;99.90;;;;;;4890787;29;20213;-72
2022/04/09 08:00:31;;;;;;;9.00;2.53;;;8.70;99.90;;;;;;4894638;29;20279;-72
2022/04/09 08:02:58;;;;;;;9.80;2.80;;;8.70;99.90;;;;;;4901495;29;20216;-71
2022/04/09 08:05:24;;;;;;;12.00;2.40;;;8.70;99.90;;;;;;4896164;29;20373;-70
2022/04/09 08:07:51;;;;;;;7.40;2.73;;;8.40;99.90;;;;;;4895867;29;20215;-72
2022/04/09 08:10:18;;;;;;;5.73;2.27;;;8.40;99.90;;;;;;4896383;29;20703;-71
2022/04/09 08:12:51;;;;;;;8.20;2.20;;;8.50;99.90;;;;;;4895403;29;20202;-72
2022/04/09 08:15:18;;;;;;;8.40;2.10;;;8.60;99.90;;;;;;4892340;29;20208;-72
2022/04/09 08:17:47;;;;;;;9.87;3.07;;;8.60;99.90;;;;;;4898025;29;20208;-72
2022/04/09 08:20:14;;;;;;;6.50;2.10;;;8.80;99.90;;;;;;4900100;29;20204;-73
2022/04/09 08:22:41;;;;;;;7.40;2.27;;;8.80;99.90;;;;;;4907775;29;20586;-72
2022/04/09 08:25:10;;;;;;;6.73;2.10;;;8.70;99.90;;;;;;4896643;29;20210;-71
2022/04/09 08:27:38;;;;;;;6.57;1.80;;;8.80;99.90;;;;;;4895800;29;20661;-70
2022/04/09 08:30:06;;;;;;;4.83;1.90;;;9.00;99.90;;;;;;4893509;29;20227;-71
2022/04/09 08:32:33;;;;;;;6.13;1.57;;;9.00;99.90;;;;;;4895291;29;20206;-71
2022/04/09 08:35:00;;;;;;;7.10;2.20;;;9.00;99.90;;;;;;4903249;29;20215;-71
2022/04/09 08:37:27;;;;;;;3.77;1.47;;;9.20;99.90;;;;;;4895809;29;20223;-71
2022/04/09 08:39:55;;;;;;;3.80;1.50;;;9.40;99.90;;;;;;4894537;29;20231;-71
2022/04/09 08:42:22;;;;;;;6.77;2.20;;;9.10;99.90;;;;;;4895953;29;20214;-72
2022/04/09 08:44:49;;;;;;;10.70;2.07;;;9.00;99.90;;;;;;4893333;29;20212;-73
2022/04/09 08:47:16;;;;;;;6.70;2.00;;;9.20;99.90;;;;;;4898458;29;20590;-72
2022/04/09 08:49:47;;;;;;;7.23;1.90;;;9.30;99.90;;;;;;4895517;29;20232;-71
2022/04/09 08:52:15;;;;;;;4.23;1.57;;;9.60;99.90;;;;;;4895584;29;20196;-71
2022/04/09 08:54:42;;;;;;;5.90;1.77;;;9.70;99.90;;;;;;4895443;29;20276;-71
2022/04/09 08:57:09;;;;;;;6.37;1.87;;;9.70;99.90;;;;;;4895289;29;20200;-71
2022/04/09 08:59:36;;;;;;;8.00;1.40;;;9.80;99.90;;;;;;4895794;29;20230;-72
2022/04/09 09:02:04;;;;;;;9.67;2.00;;;9.60;99.90;;;;;;4896523;29;20192;-71
2022/04/09 09:04:31;;;;;;;5.80;1.70;;;9.60;99.90;;;;;;4884216;29;20290;-71
2022/04/09 09:07:20;;;;;;;4.90;1.60;;;9.80;99.90;;;;;;4895528;29;20202;-71
2022/04/09 09:09:49;;;;;;;3.77;1.30;;;10.10;99.90;;;;;;4895338;29;20220;-73
2022/04/09 09:12:29;;;;;;;4.87;1.77;;;10.40;99.90;;;;;;4895800;29;21015;-72
2022/04/09 09:14:57;;;;;;;6.77;1.40;;;10.60;99.90;;;;;;4892634;29;20268;-72
2022/04/09 09:17:31;;;;;;;6.37;1.53;;;10.50;99.90;;;;;;4895978;29;20208;-73
2022/04/09 09:20:00;;;;;;;5.43;1.53;;;10.20;99.90;;;;;;4895399;29;20226;-72
2022/04/09 09:22:40;;;;;;;6.40;1.80;;;10.00;99.90;;;;;;4893935;29;20557;-72
2022/04/09 09:25:09;;;;;;;4.93;1.80;;;9.90;99.90;;;;;;4890342;29;20200;-73
2022/04/09 09:27:37;;;;;;;4.40;1.40;;;10.10;99.90;;;;;;4893885;29;20203;-71
2022/04/09 09:30:12;;;;;;;4.13;1.33;;;10.40;99.90;;;;;;4895246;29;20224;-73
2022/04/09 09:32:41;;;;;;;6.70;1.53;;;10.90;99.90;;;;;;4895435;29;20206;-72
2022/04/09 09:35:12;;;;;;;4.27;1.50;;;11.20;99.90;;;;;;4896262;29;20218;-72
2022/04/09 09:37:38;;;;;;;6.57;1.63;;;11.00;99.90;;;;;;4892890;29;20781;-72
2022/04/09 09:40:05;;;;;;;5.67;1.77;;;10.80;99.90;;;;;;4893512;29;20217;-71
2022/04/09 09:42:35;;;;;;;6.37;1.67;;;10.30;99.90;;;;;;4894332;29;20201;-73
2022/04/09 09:45:01;;;;;;;6.03;1.40;;;10.30;99.90;;;;;;4890925;29;20200;-72
2022/04/09 09:47:28;;;;;;;7.60;1.77;;;10.10;99.90;;;;;;4894356;29;20855;-72
2022/04/09 09:49:56;;;;;;;2.97;1.50;;;10.40;99.90;;;;;;4894720;29;20230;-74
2022/04/09 09:52:28;;;;;;;2.57;1.30;;;10.90;99.90;;;;;;4894998;29;20203;-74
2022/04/09 09:55:14;;;;;;;8.50;1.67;;;11.00;99.90;;;;;;4894986;29;20608;-72
2022/04/09 09:57:42;;;;;;;2.40;1.20;;;10.80;99.90;;;;;;4892139;29;20252;-72
2022/04/09 10:00:14;;;;;;;3.80;1.77;;;11.10;99.90;;;;;;4902519;29;20243;-71
2022/04/09 10:02:44;;;;;;;4.17;1.37;;;11.20;99.90;;;;;;4894066;29;20284;-73
2022/04/09 10:05:11;;;;;;;2.93;1.27;;;11.50;99.90;;;;;;4895146;29;20241;-72
2022/04/09 10:07:39;;;;;;;3.83;1.50;;;11.90;99.90;;;;;;4893138;29;20224;-72
2022/04/09 10:10:06;;;;;;;4.20;1.90;;;12.20;99.90;;;;;;4894134;29;20228;-74
2022/04/09 10:12:39;;;;;;;6.37;2.30;;;12.20;99.90;;;;;;4892494;29;20210;-71
2022/04/09 10:15:07;;;;;;;2.53;1.30;;;12.20;99.90;;;;;;4894033;29;20226;-71
2022/04/09 10:17:34;;;;;;;7.07;1.50;;;12.50;99.90;;;;;;4893805;29;20261;-73
2022/04/09 10:20:02;;;;;;;4.97;1.90;;;12.60;99.90;;;;;;4886962;29;20224;-72
2022/04/09 10:22:38;;;;;;;3.90;1.27;;;13.10;99.90;;;;;;4892503;29;20205;-72
2022/04/09 10:25:07;;;;;;;2.33;1.30;;;13.20;99.90;;;;;;4894535;29;20208;-74
2022/04/09 10:27:37;;;;;;;3.43;1.57;;;13.00;99.90;;;;;;4915875;29;20207;-74
2022/04/09 10:30:10;;;;;;;6.13;1.53;;;12.80;99.90;;;;;;4885823;29;20762;-72
2022/04/09 10:32:42;;;;;;;7.60;1.60;;;12.50;99.90;;;;;;4889648;29;20196;-74
2022/04/09 10:35:28;;;;;;;3.73;1.30;;;12.60;99.90;;;;;;4893225;29;20619;-72
2022/04/09 10:38:07;;;;;;;4.73;1.83;;;12.80;99.90;;;;;;4893816;29;20200;-71
2022/04/09 10:41:02;;;;;;;1.63;1.20;;;12.40;99.90;;;;;;4885001;29;20306;-71
2022/04/09 10:43:39;;;;;;;1.03;0.77;;;11.10;99.90;;;;;;4893534;29;20221;-71
2022/04/09 10:46:11;;;;;;;2.90;0.70;;;9.80;99.90;;;;;;4887949;29;20263;-71
2022/04/09 10:48:42;;;;;;;1.23;0.60;;;8.90;99.90;;;;;;4892239;29;20250;-71
2022/04/09 10:51:11;;;;;;;2.43;0.87;;;7.80;99.90;;;;;;4893129;29;20326;-71
2022/04/09 10:53:41;;;;;;;2.13;0.90;;;7.00;99.90;;;;;;4889999;29;20225;-74
2022/04/09 10:56:13;;;;;;;1.43;0.87;;;7.00;99.90;;;;;;4893960;29;20251;-71
2022/04/09 10:59:05;;;;;;;2.17;0.80;;;6.90;99.90;;;;;;4891541;29;20226;-71
2022/04/09 11:01:46;;;;;;;2.73;0.80;;;6.80;99.90;;;;;;4894107;29;20214;-70
2022/04/09 11:04:37;;;;;;;3.07;1.20;;;6.60;99.90;;;;;;4888029;29;20200;-71
2022/04/09 11:07:16;;;;;;;1.70;1.00;;;6.70;99.90;;;;;;4891851;29;20742;-71
2022/04/09 11:09:49;;;;;;;5.23;1.43;;;6.60;99.90;;;;;;4893432;29;20758;-74
2022/04/09 11:12:25;;;;;;;1.00;0.83;;;6.50;99.90;;;;;;4894747;29;20212;-71
2022/04/09 11:14:55;;;;;;;1.93;1.00;;;6.60;99.90;;;;;;4890794;29;20230;-72
2022/04/09 11:17:38;;;;;;;0.60;0.60;;;6.50;99.90;;;;;;4894403;29;20200;-69
2022/04/09 11:20:07;;;;;;;3.33;0.80;;;6.50;99.90;;;;;;4893651;29;20216;-70
2022/04/09 11:22:48;;;;;;;1.90;0.90;;;6.60;99.90;;;;;;4892904;29;20200;-72
2022/04/09 11:25:20;;;;;;;1.60;0.90;;;6.90;99.90;;;;;;4909039;29;20205;-71
2022/04/09 11:27:46;;;;;;;2.03;0.97;;;7.00;99.90;;;;;;4893084;29;20280;-71
2022/04/09 11:30:14;;;;;;;2.70;0.77;;;7.30;99.90;;;;;;4890974;29;20577;-71
2022/04/09 11:32:41;;;;;;;0.53;0.53;;;7.40;99.90;;;;;;4893958;29;20220;-71
2022/04/09 11:35:10;;;;;;;3.77;1.00;;;7.40;99.90;;;;;;4890783;29;20676;-72
2022/04/09 11:37:42;;;;;;;2.20;1.00;;;7.40;99.90;;;;;;4894464;29;20204;-71
2022/04/09 11:40:10;;;;;;;3.00;1.13;;;7.40;99.90;;;;;;4900205;29;20220;-73
2022/04/09 11:42:51;;;;;;;3.80;0.90;;;7.50;99.90;;;;;;4907886;29;20694;-72
2022/04/09 11:45:29;;;;;;;3.07;1.00;;;7.70;99.90;;;;;;4889987;29;20626;-71
2022/04/09 11:47:58;;;;;;;3.20;0.83;;;8.20;99.90;;;;;;4890194;29;20233;-71
2022/04/09 11:50:30;;;;;;;3.63;0.77;;;8.80;99.90;;;;;;4889518;29;20199;-72
2022/04/09 11:53:15;;;;;;;1.87;1.00;;;9.20;99.90;;;;;;4896762;29;20205;-72
2022/04/09 11:55:46;;;;;;;1.43;0.80;;;9.50;99.90;;;;;;4894776;29;20216;-71
2022/04/09 11:58:16;;;;;;;1.53;0.93;;;9.40;99.90;;;;;;4911993;29;20273;-71
2022/04/09 12:00:45;;;;;;;2.07;1.03;;;9.60;99.90;;;;;;4896879;29;20207;-70
2022/04/09 12:03:13;;;;;;;5.17;1.20;;;9.50;99.90;;;;;;4897230;29;20204;-71
2022/04/09 12:05:48;;;;;;;2.93;1.07;;;9.70;99.90;;;;;;4896351;29;20656;-71
2022/04/09 12:08:23;;;;;;;7.17;1.20;;;10.10;99.90;;;;;;4891514;29;20212;-71
2022/04/09 12:10:57;;;;;;;2.50;1.20;;;10.30;99.90;;;;;;4896280;29;20239;-72
2022/04/09 12:13:37;;;;;;;3.80;1.20;;;10.60;99.90;;;;;;4893049;29;20232;-72
2022/04/09 12:16:09;;;;;;;2.43;1.30;;;10.90;99.90;;;;;;4897138;29;20210;-71
2022/04/09 12:18:37;;;;;;;10.97;4.07;;;11.10;99.90;;;;;;4896403;29;20221;-71
2022/04/09 12:21:24;;;;;;;6.87;3.27;;;11.10;99.90;;;;;;4910305;29;20593;-72
2022/04/09 12:24:12;;;;;;;4.77;1.50;;;11.20;99.90;;;;;;4894242;29;20204;-71
2022/04/09 12:26:40;;;;;;;5.87;1.50;;;11.30;99.90;;;;;;4910817;29;20224;-72
2022/04/09 12:29:22;;;;;;;2.57;1.17;;;11.30;99.90;;;;;;4894851;29;20717;-70
2022/04/09 12:31:51;;;;;;;4.77;1.67;;;11.60;99.90;;;;;;4893095;29;20282;-70
2022/04/09 12:34:19;;;;;;;5.37;1.60;;;11.40;99.90;;;;;;4895976;29;20190;-70
2022/04/09 12:37:04;;;;;;;4.90;1.27;;;11.40;99.90;;;;;;4890280;29;20211;-71
2022/04/09 12:39:33;;;;;;;5.53;1.47;;;11.30;99.90;;;;;;4890690;29;20257;-72
2022/04/09 12:42:01;;;;;;;4.17;1.60;;;11.00;99.90;;;;;;4896185;29;20209;-73
2022/04/09 12:44:32;;;;;;;5.03;1.30;;;11.40;99.90;;;;;;4895953;29;20208;-72
2022/04/09 12:47:00;;;;;;;3.73;1.10;;;11.80;99.90;;;;;;4895829;29;20204;-71
2022/04/09 12:49:28;;;;;;;2.47;1.30;;;11.90;99.90;;;;;;4897318;29;20219;-72
2022/04/09 12:51:56;;;;;;;2.90;1.10;;;12.10;99.90;;;;;;4896460;29;20230;-72
2022/04/09 12:54:23;;;;;;;5.33;1.20;;;12.10;99.90;;;;;;4897297;29;20196;-72
2022/04/09 12:56:51;;;;;;;3.80;1.10;;;12.60;99.90;;;;;;4893305;29;20575;-71
2022/04/09 12:59:18;;;;;;;3.30;1.33;;;12.50;99.90;;;;;;4896678;29;20216;-72